Bellingham, WA

11:55 PM PDT on September 30, 2014 (GMT -0700)
Columbia-Eldridge Marimba Palace | Change Station
CLOSE
Current Station
Personal Weather Station
Location: Bellingham, WA
Elevation: 97 ft
Nearby Weather Stations

Elev 97 ft 48.76 °N, 122.50 °W | Updated 3 seconds ago

Overcast
Overcast
56.9 °F
Feels Like 56.9 °F
N
3.8
Wind Variable Wind from ESE
Gusts 3.8 mph

Today
High -- | Low -- °F
--% Chance of Precip.
Yesterday
High -- | Low -- °F
Precip. -- in
7:08 AM 6:50 PM
Waxing Crescent, 44% visible
Pressure 30.14 in
Visibility 10.0 miles
Clouds Few 6000 ft
Overcast 8500 ft
Dew Point 51 °F
Humidity 81%
Rainfall 0.00 in
Snow Depth 0 in , 0 in , 0 in
UV 0 out of 12
Pollen .40 out of 12
PM2.5 Good
Flu Activity Not available.
METAR KBLI 010553Z AUTO 16005KT 10SM FEW060 OVC085 14/09 A3012 RMK AO2 SLP207 T01440094 10172 20122 51007

More Conditions Fewer Conditions

Pressure 30.14 in
Visibility 10.0 miles
Clouds Few 6000 ft
Overcast 8500 ft
Dew Point 51 °F
Humidity 81%
Rainfall 0.00 in
Snow Depth 0 in , 0 in , 0 in
UV 0 out of 12
Pollen .40 out of 12
PM2.5 Good
Flu Activity Not available.
METAR KBLI 010553Z AUTO 16005KT 10SM FEW060 OVC085 14/09 A3012 RMK AO2 SLP207 T01440094 10172 20122 51007

More Conditions Fewer Conditions

10-Day Weather Forecast

Almanac

Astronomy

Sep. 30, 2014 Rise Set
Actual Time 7:08 AM PDT 6:50 PM PDT
Civil Twilight 6:36 AM PDT 7:22 PM PDT
Nautical Twilight 6:00 AM PDT 7:58 PM PDT
Astronomical Twilight 5:22 AM PDT 8:35 PM PDT
Moon 1:44 PM PDT (9/30) 11:03 PM PDT (9/30)
Length of Visible Light 12h 45m
Length of Day
11h 42m
Tomorrow will be 3m 33s shorter.
Waxing Crescent, 44% of the Moon is Illuminated
Oct 1
Waxing Crescent
Oct 1
First Quarter
Oct 8
Full
Oct 15
Last Quarter
Oct 23
New

Community

WunderPhotos

Upload Photos

1,757,886 photos uploaded!

Nearby

Air Quality

  Air Quality AQ Index Pollutant
Yesterday Good
OZONE
Yesterday Good
PM2.5
Current Good
PM2.5
Tuesday Good
OZONE
Tuesday Good
PM2.5
Wednesday Good
OZONE
Wednesday Good
PM2.5
Thursday Good
OZONE
Thursday Good
PM2.5
Friday Good
OZONE
Friday Good
PM2.5

Snow Depth

Station Depth Elevation
Park Creek Ridge 0 in 4600 ft
Mount Crag 0 in 4050 ft
June Lake 0 in 3340 ft
Skookum Creek 0 in 3920 ft
Olallie Meadows 0 in 3700 ft

Earthquake Activity

City Distance Mag. Time & Date
No recent earthquake activity has been reported nearby.
Minimum magnitude displayed is 2.5.

Coastal Water Temperatures

Place Temperature
Port Townsend, WA 52.0 °F
Friday Harbor, WA 51.1 °F
Port Angeles, WA 52.0 °F

Nearby Weather Stations